Time;durP1;ratioP1;P1;durP2;ratioP2;P2;SDS_P1;SDS_P2;PMS_P1;PMS_P2;Temp;Humidity;BMP_temperature;BMP_pressure;BME280_temperature;BME280_humidity;BME280_pressure;Samples;Min_cycle;Max_cycle;Signal;HPM_P1;HPM_P2
2023/03/11 00:01:25;;;;;;;9.70;3.47;;;0.20;99.90;;;;;;5069516;28;20040;-72
2023/03/11 00:03:50;;;;;;;5.50;2.30;;;0.20;99.90;;;;;;5087159;28;20051;-71
2023/03/11 00:06:16;;;;;;;8.57;2.63;;;0.20;99.90;;;;;;5069707;28;20048;-71
2023/03/11 00:08:41;;;;;;;4.80;2.40;;;0.20;99.90;;;;;;5053076;28;20040;-71
2023/03/11 00:11:07;;;;;;;9.30;2.38;;;0.20;99.90;;;;;;5069460;28;20040;-71
2023/03/11 00:13:33;;;;;;;10.85;2.30;;;0.20;99.90;;;;;;5086157;28;20127;-72
2023/03/11 00:15:59;;;;;;;6.68;2.85;;;0.20;99.90;;;;;;5086578;28;20419;-72
2023/03/11 00:18:28;;;;;;;3.22;2.22;;;0.20;99.90;;;;;;5055939;28;20098;-72
2023/03/11 00:20:55;;;;;;;8.07;2.50;;;0.20;99.90;;;;;;5086336;28;20054;-71
2023/03/11 00:23:21;;;;;;;6.30;2.20;;;0.20;99.90;;;;;;5087485;28;20047;-71
2023/03/11 00:25:46;;;;;;;8.30;2.50;;;0.10;99.90;;;;;;5085411;28;20047;-71
2023/03/11 00:28:14;;;;;;;5.03;2.30;;;0.10;99.90;;;;;;5068071;28;20044;-71
2023/03/11 00:30:42;;;;;;;3.40;2.10;;;0.10;99.90;;;;;;5067880;28;20068;-71
2023/03/11 00:33:10;;;;;;;7.13;2.20;;;0.10;99.90;;;;;;5086820;28;20036;-71
2023/03/11 00:35:36;;;;;;;6.35;2.42;;;0.10;99.90;;;;;;5070108;28;20048;-71
2023/03/11 00:38:07;;;;;;;4.82;2.15;;;0.10;99.90;;;;;;5086571;28;20565;-72
2023/03/11 00:40:34;;;;;;;5.10;2.20;;;0.10;99.90;;;;;;5069656;28;20040;-71
2023/03/11 00:43:00;;;;;;;3.40;2.13;;;0.10;99.90;;;;;;5083679;28;20039;-71
2023/03/11 00:45:26;;;;;;;8.95;2.60;;;0.10;99.90;;;;;;5069373;28;20048;-71
2023/03/11 00:47:52;;;;;;;4.25;2.20;;;0.10;99.90;;;;;;5087701;28;20086;-71
2023/03/11 00:50:21;;;;;;;8.38;2.30;;;0.00;99.90;;;;;;5085789;28;20468;-71
2023/03/11 00:52:48;;;;;;;7.35;2.22;;;0.10;99.90;;;;;;5068320;28;20135;-71
2023/03/11 00:55:17;;;;;;;6.15;2.30;;;0.00;99.90;;;;;;5059771;28;20032;-71
2023/03/11 00:57:43;;;;;;;10.30;3.67;;;0.00;99.90;;;;;;5080544;28;20032;-71
2023/03/11 01:00:13;;;;;;;9.15;3.25;;;0.00;99.90;;;;;;5083879;28;20043;-71
2023/03/11 01:02:39;;;;;;;8.65;3.13;;;0.00;99.90;;;;;;5082295;28;20537;-72
2023/03/11 01:05:05;;;;;;;7.13;2.65;;;0.00;99.90;;;;;;5085208;28;20040;-72
2023/03/11 01:07:32;;;;;;;8.15;2.92;;;0.00;99.90;;;;;;5085471;28;20059;-71
2023/03/11 01:09:58;;;;;;;5.72;2.88;;;0.00;99.90;;;;;;5087796;28;20075;-71
2023/03/11 01:12:24;;;;;;;6.35;2.45;;;0.00;99.90;;;;;;5085200;28;20036;-72
2023/03/11 01:14:49;;;;;;;7.15;2.38;;;0.00;99.90;;;;;;5084368;28;20040;-71
2023/03/11 01:17:15;;;;;;;7.53;2.78;;;-0.10;99.90;;;;;;5083688;28;20032;-71
2023/03/11 01:19:40;;;;;;;9.68;2.67;;;-0.10;99.90;;;;;;5086244;28;20076;-71
2023/03/11 01:22:06;;;;;;;9.82;2.20;;;-0.10;99.90;;;;;;5066917;28;20040;-72
2023/03/11 01:24:32;;;;;;;6.28;2.33;;;-0.10;99.90;;;;;;5082652;28;20055;-71
2023/03/11 01:26:57;;;;;;;3.35;2.00;;;-0.10;99.90;;;;;;5084783;28;20044;-71
2023/03/11 01:29:23;;;;;;;6.45;2.50;;;-0.10;99.90;;;;;;5075423;28;20114;-71
2023/03/11 01:31:48;;;;;;;4.93;2.30;;;0.00;99.90;;;;;;5077085;28;20044;-71
2023/03/11 01:34:14;;;;;;;6.60;2.60;;;0.00;99.90;;;;;;5083731;28;20137;-71
2023/03/11 01:36:39;;;;;;;9.40;2.70;;;0.00;99.90;;;;;;5085130;28;20389;-71
2023/03/11 01:39:05;;;;;;;6.50;3.08;;;-0.10;99.90;;;;;;5083733;28;20032;-71
2023/03/11 01:41:31;;;;;;;7.78;3.50;;;0.00;99.90;;;;;;5083196;28;22396;-71
2023/03/11 01:43:56;;;;;;;9.90;2.85;;;-0.10;99.90;;;;;;5083616;28;20430;-72
2023/03/11 01:46:26;;;;;;;7.80;2.30;;;-0.10;99.90;;;;;;5086589;28;20035;-71
2023/03/11 01:48:56;;;;;;;4.25;2.28;;;-0.10;99.90;;;;;;5085902;28;20384;-72
2023/03/11 01:51:39;;;;;;;7.03;2.42;;;-0.10;99.90;;;;;;5059360;28;20079;-71
2023/03/11 01:54:10;;;;;;;5.10;2.45;;;-0.10;99.90;;;;;;5082727;28;20101;-72
2023/03/11 01:56:37;;;;;;;5.15;2.20;;;-0.10;99.90;;;;;;5085564;28;20048;-71
2023/03/11 01:59:04;;;;;;;4.40;2.17;;;-0.10;99.90;;;;;;5058987;28;20373;-71
2023/03/11 02:01:30;;;;;;;4.78;2.08;;;-0.10;99.90;;;;;;5080618;28;20044;-71
2023/03/11 02:03:57;;;;;;;5.40;2.45;;;-0.10;99.90;;;;;;5083863;28;20032;-71
2023/03/11 02:06:24;;;;;;;5.18;2.45;;;-0.20;99.90;;;;;;5083954;28;20048;-71
2023/03/11 02:08:50;;;;;;;7.88;2.72;;;-0.20;99.90;;;;;;5066487;28;20044;-72
2023/03/11 02:11:23;;;;;;;9.30;3.13;;;-0.30;99.90;;;;;;5067219;28;20040;-72
2023/03/11 02:13:51;;;;;;;9.73;3.47;;;-0.40;99.90;;;;;;5079577;28;20066;-71
2023/03/11 02:16:17;;;;;;;4.95;2.58;;;-0.40;99.90;;;;;;5051562;28;20094;-71
2023/03/11 02:18:43;;;;;;;8.80;3.03;;;-0.40;99.90;;;;;;5086286;28;20028;-71
2023/03/11 02:21:27;;;;;;;6.45;2.40;;;-0.50;99.90;;;;;;5077269;28;20040;-70
2023/03/11 02:24:02;;;;;;;;;;;-0.50;99.90;;;;;;5075461;28;20048;-71
2023/03/11 02:27:06;;;;;;;5.82;2.45;;;-0.50;99.90;;;;;;5062590;28;19927;-71
2023/03/11 02:29:33;;;;;;;7.38;2.25;;;-0.60;99.90;;;;;;5082563;28;20503;-70
2023/03/11 02:32:03;;;;;;;3.70;2.17;;;-0.60;99.90;;;;;;5087564;28;20038;-71
2023/03/11 02:34:33;;;;;;;6.00;2.25;;;-0.60;99.90;;;;;;5087426;28;20554;-70
2023/03/11 02:37:00;;;;;;;5.38;2.50;;;-0.60;99.90;;;;;;5067619;28;20043;-71
2023/03/11 02:39:41;;;;;;;5.32;2.20;;;-0.60;99.90;;;;;;5088937;28;20388;-71
2023/03/11 02:42:14;;;;;;;5.63;2.50;;;-0.60;99.90;;;;;;5064668;28;20052;-71
2023/03/11 02:44:42;;;;;;;6.88;2.35;;;-0.60;99.90;;;;;;5088448;28;20407;-71
2023/03/11 02:47:09;;;;;;;7.13;2.97;;;-0.60;99.90;;;;;;5086219;28;20400;-71
2023/03/11 02:49:35;;;;;;;8.30;3.10;;;-0.70;99.90;;;;;;5081736;28;20036;-71
2023/03/11 02:52:01;;;;;;;7.65;2.88;;;-0.60;99.90;;;;;;5084194;28;20078;-71
2023/03/11 02:54:27;;;;;;;9.15;2.70;;;-0.70;99.90;;;;;;5079989;28;20166;-71
2023/03/11 02:56:52;;;;;;;4.82;2.50;;;-0.70;99.90;;;;;;5086392;28;20141;-71
2023/03/11 02:59:18;;;;;;;4.28;2.08;;;-0.80;99.90;;;;;;5082582;28;20044;-71
2023/03/11 03:01:44;;;;;;;4.93;2.38;;;-0.90;99.90;;;;;;5087779;28;20566;-71
2023/03/11 03:04:09;;;;;;;4.85;2.08;;;-1.00;99.90;;;;;;5086078;28;20059;-71
2023/03/11 03:06:35;;;;;;;6.82;2.30;;;-1.10;99.90;;;;;;5080273;28;20067;-71
2023/03/11 03:09:01;;;;;;;4.50;2.00;;;-1.20;99.90;;;;;;5082009;28;20480;-71
2023/03/11 03:11:27;;;;;;;5.15;2.10;;;-1.30;99.90;;;;;;5070108;28;20384;-71
2023/03/11 03:13:52;;;;;;;5.13;2.00;;;-1.40;99.90;;;;;;5068840;28;20043;-71
2023/03/11 03:16:18;;;;;;;5.55;2.10;;;-1.60;99.90;;;;;;5067125;28;20174;-70
2023/03/11 03:18:43;;;;;;;7.47;2.00;;;-1.60;99.90;;;;;;5063970;28;20441;-70
2023/03/11 03:21:09;;;;;;;3.13;2.00;;;-1.70;99.90;;;;;;5087782;28;20043;-71
2023/03/11 03:23:36;;;;;;;7.35;2.20;;;-1.80;99.90;;;;;;5069749;28;20067;-70
2023/03/11 03:26:03;;;;;;;4.95;2.00;;;-1.90;99.90;;;;;;5087153;28;20101;-71
2023/03/11 03:28:29;;;;;;;4.85;2.20;;;-1.90;99.90;;;;;;5087004;28;20039;-70
2023/03/11 03:30:54;;;;;;;3.67;2.05;;;-2.10;99.90;;;;;;5087457;28;20073;-70
2023/03/11 03:33:20;;;;;;;5.18;2.13;;;-2.10;99.90;;;;;;5082992;28;20044;-70
2023/03/11 03:35:45;;;;;;;4.18;2.00;;;-2.20;99.90;;;;;;5088945;28;20039;-71
2023/03/11 03:38:11;;;;;;;3.65;2.20;;;-2.30;99.90;;;;;;5080829;28;20444;-71
2023/03/11 03:40:38;;;;;;;3.47;2.10;;;-2.40;99.90;;;;;;5089462;28;20425;-70
2023/03/11 03:43:04;;;;;;;5.18;2.30;;;-2.40;99.90;;;;;;5088144;28;20073;-71
2023/03/11 03:45:29;;;;;;;3.95;2.03;;;-2.50;99.90;;;;;;5069678;28;20101;-70
2023/03/11 03:47:55;;;;;;;5.65;2.55;;;-2.60;99.90;;;;;;5083894;28;20041;-71
2023/03/11 03:50:21;;;;;;;5.68;2.20;;;-2.70;99.90;;;;;;5084689;28;20419;-71
2023/03/11 03:52:47;;;;;;;4.75;2.20;;;-2.70;99.90;;;;;;5080770;28;20040;-71
2023/03/11 03:55:12;;;;;;;4.95;2.42;;;-2.80;99.90;;;;;;5088929;28;20040;-70
2023/03/11 03:57:38;;;;;;;4.60;2.38;;;-2.80;99.90;;;;;;5051788;28;20476;-71
2023/03/11 04:00:07;;;;;;;3.83;2.50;;;-2.80;99.90;;;;;;5083602;28;20055;-71
2023/03/11 04:02:33;;;;;;;7.50;2.40;;;-2.80;99.90;;;;;;5084413;28;20475;-71
2023/03/11 04:04:59;;;;;;;4.15;2.28;;;-2.90;99.90;;;;;;5065428;28;20079;-71
2023/03/11 04:07:24;;;;;;;5.63;2.40;;;-3.00;99.90;;;;;;5087710;28;20036;-70
2023/03/11 04:09:50;;;;;;;4.47;2.42;;;-3.00;99.90;;;;;;5087958;28;20027;-70
2023/03/11 04:12:16;;;;;;;4.05;2.75;;;-3.10;99.90;;;;;;5067918;28;20036;-71
2023/03/11 04:14:42;;;;;;;6.22;2.65;;;-3.10;99.90;;;;;;5088344;28;20090;-70
2023/03/11 04:17:11;;;;;;;7.57;2.70;;;-3.10;99.90;;;;;;5050334;28;20043;-71
2023/03/11 04:19:37;;;;;;;6.38;2.83;;;-3.20;99.90;;;;;;5084817;28;20123;-71
2023/03/11 04:22:03;;;;;;;5.10;3.08;;;-3.20;99.90;;;;;;5067293;28;20127;-71
2023/03/11 04:24:28;;;;;;;7.15;2.58;;;-3.30;99.90;;;;;;5081924;28;20056;-71
2023/03/11 04:26:54;;;;;;;3.45;2.50;;;-3.30;99.90;;;;;;5087187;28;20094;-71
2023/03/11 04:29:20;;;;;;;5.07;2.40;;;-3.40;99.90;;;;;;5083342;28;20370;-70
2023/03/11 04:31:45;;;;;;;4.28;2.38;;;-3.40;99.90;;;;;;5085714;28;20066;-70
2023/03/11 04:34:11;;;;;;;5.32;2.50;;;-3.50;99.90;;;;;;5054224;28;20039;-71
2023/03/11 04:36:37;;;;;;;4.78;2.47;;;-3.50;99.90;;;;;;5083670;28;20040;-71
2023/03/11 04:39:02;;;;;;;6.78;2.58;;;-3.60;99.90;;;;;;5086543;28;20036;-71
2023/03/11 04:41:28;;;;;;;4.50;2.80;;;-3.60;99.90;;;;;;5083533;28;20079;-70
2023/03/11 04:43:53;;;;;;;6.55;2.50;;;-3.70;99.90;;;;;;5086706;28;20070;-70
2023/03/11 04:46:19;;;;;;;5.07;2.78;;;-3.80;99.90;;;;;;5062636;28;20046;-70
2023/03/11 04:48:45;;;;;;;5.68;2.45;;;-3.80;99.90;;;;;;5085788;28;20047;-70
2023/03/11 04:51:10;;;;;;;4.40;2.30;;;-3.80;99.90;;;;;;5087090;28;20120;-70
2023/03/11 04:53:36;;;;;;;5.07;2.60;;;-3.90;99.90;;;;;;5076192;28;20032;-70
2023/03/11 04:56:01;;;;;;;4.63;2.70;;;-3.90;99.90;;;;;;5084210;28;20043;-70
2023/03/11 04:58:27;;;;;;;6.78;2.50;;;-3.90;99.90;;;;;;5051379;28;20048;-70
2023/03/11 05:00:53;;;;;;;6.75;2.70;;;-4.00;99.90;;;;;;5085174;28;20046;-69
2023/03/11 05:03:18;;;;;;;4.40;2.80;;;-4.10;99.90;;;;;;5085478;28;20032;-69
2023/03/11 05:05:44;;;;;;;8.13;3.17;;;-4.10;99.90;;;;;;5082223;28;20446;-70
2023/03/11 05:08:10;;;;;;;8.05;3.17;;;-4.10;99.90;;;;;;5067518;28;20043;-70
2023/03/11 05:10:36;;;;;;;8.50;3.55;;;-4.20;99.90;;;;;;5068826;28;20035;-70
2023/03/11 05:13:02;;;;;;;11.30;3.45;;;-4.20;99.90;;;;;;5087079;28;20169;-69
2023/03/11 05:15:30;;;;;;;6.80;2.80;;;-4.30;99.90;;;;;;5063940;28;20071;-70
2023/03/11 05:17:55;;;;;;;7.57;3.17;;;-4.30;99.90;;;;;;5066588;28;20526;-69
2023/03/11 05:20:21;;;;;;;7.32;3.20;;;-4.30;99.90;;;;;;5084277;28;20111;-69
2023/03/11 05:22:46;;;;;;;6.10;3.30;;;-4.30;99.90;;;;;;5064576;28;20036;-70
2023/03/11 05:25:12;;;;;;;6.15;3.60;;;-4.30;99.90;;;;;;5082959;28;20052;-69
2023/03/11 05:27:38;;;;;;;7.75;3.13;;;-4.40;99.90;;;;;;5087284;28;20098;-69
2023/03/11 05:30:04;;;;;;;7.03;3.47;;;-4.40;99.90;;;;;;5063723;28;20032;-69
2023/03/11 05:32:30;;;;;;;4.32;3.00;;;-4.40;99.90;;;;;;5066927;28;20052;-69
2023/03/11 05:34:55;;;;;;;5.50;3.03;;;-4.40;99.90;;;;;;5084071;28;20036;-69
2023/03/11 05:37:21;;;;;;;6.85;3.03;;;-4.40;99.90;;;;;;5081101;28;20500;-70
2023/03/11 05:39:46;;;;;;;6.25;2.90;;;-4.40;99.90;;;;;;5084283;28;20098;-69
2023/03/11 05:42:12;;;;;;;6.22;2.85;;;-4.50;99.90;;;;;;5068383;28;20036;-70
2023/03/11 05:44:38;;;;;;;7.18;3.22;;;-4.50;99.90;;;;;;5067990;28;20082;-69
2023/03/11 05:47:03;;;;;;;5.45;2.90;;;-4.50;99.90;;;;;;5078183;28;20044;-69
2023/03/11 05:49:29;;;;;;;6.63;3.10;;;-4.60;99.90;;;;;;5062754;28;20883;-69
2023/03/11 05:51:55;;;;;;;4.90;3.00;;;-4.60;99.90;;;;;;5084754;28;20048;-69
2023/03/11 05:54:20;;;;;;;5.63;2.80;;;-4.60;99.90;;;;;;5064978;28;20043;-69
2023/03/11 05:56:46;;;;;;;6.82;3.22;;;-4.60;99.90;;;;;;5085747;28;20040;-69
2023/03/11 05:59:13;;;;;;;7.00;3.00;;;-4.60;99.90;;;;;;5065824;28;20411;-69
2023/03/11 06:01:40;;;;;;;7.40;2.78;;;-4.60;99.90;;;;;;5085150;28;20450;-69
2023/03/11 06:04:06;;;;;;;5.68;3.15;;;-4.70;99.90;;;;;;5049166;28;20048;-69
2023/03/11 06:06:32;;;;;;;5.30;2.78;;;-4.70;99.90;;;;;;5084800;28;20077;-69
2023/03/11 06:08:57;;;;;;;9.00;3.47;;;-4.70;99.90;;;;;;5061466;28;20482;-69
2023/03/11 06:11:24;;;;;;;7.78;3.20;;;-4.70;99.90;;;;;;5065113;28;20444;-69
2023/03/11 06:13:54;;;;;;;5.85;3.17;;;-4.70;99.90;;;;;;5085958;28;20044;-69
2023/03/11 06:16:21;;;;;;;7.00;3.38;;;-4.70;99.90;;;;;;5080924;28;20559;-69
2023/03/11 06:18:46;;;;;;;8.68;3.30;;;-4.70;99.90;;;;;;5084002;28;20039;-69
2023/03/11 06:21:17;;;;;;;11.70;3.13;;;-4.70;99.90;;;;;;5085761;28;20052;-69
2023/03/11 06:23:43;;;;;;;4.97;3.40;;;-4.70;99.90;;;;;;5082955;28;20048;-69
2023/03/11 06:26:12;;;;;;;5.28;3.03;;;-4.60;99.90;;;;;;5066702;28;20070;-69
2023/03/11 06:28:38;;;;;;;4.72;2.83;;;-4.70;99.90;;;;;;5084086;28;20359;-69
2023/03/11 06:31:09;;;;;;;6.38;2.70;;;-4.70;99.90;;;;;;5085322;28;20031;-69
2023/03/11 06:33:35;;;;;;;4.70;2.70;;;-4.70;99.90;;;;;;5085081;28;20381;-69
2023/03/11 06:36:03;;;;;;;3.53;2.50;;;-4.70;99.90;;;;;;5082913;28;20044;-69
2023/03/11 06:38:28;;;;;;;11.68;4.90;;;-4.60;99.90;;;;;;5066829;28;20050;-69
2023/03/11 06:40:59;;;;;;;4.75;2.50;;;-4.60;99.90;;;;;;5067027;28;20044;-69
2023/03/11 06:43:24;;;;;;;4.25;2.97;;;-4.60;99.90;;;;;;5084465;28;20379;-70
2023/03/11 06:45:50;;;;;;;5.30;3.08;;;-4.50;99.90;;;;;;5078457;28;20041;-69
2023/03/11 06:48:15;;;;;;;6.35;3.38;;;-4.50;99.90;;;;;;5079556;28;20028;-69
2023/03/11 06:50:41;;;;;;;4.55;3.08;;;-4.40;99.90;;;;;;5083839;28;20102;-69
2023/03/11 06:53:07;;;;;;;8.45;3.08;;;-4.30;99.90;;;;;;5077512;28;20044;-69
2023/03/11 06:55:33;;;;;;;5.32;3.20;;;-4.20;99.90;;;;;;5066645;28;20052;-69
2023/03/11 06:58:00;;;;;;;6.60;3.22;;;-4.20;99.90;;;;;;5066587;28;20048;-69
2023/03/11 07:00:26;;;;;;;4.45;3.65;;;-4.10;99.90;;;;;;5086160;28;20150;-69
2023/03/11 07:02:51;;;;;;;6.75;3.28;;;-4.00;99.90;;;;;;5066964;28;20040;-69
2023/03/11 07:05:17;;;;;;;5.95;3.10;;;-3.90;99.90;;;;;;5061757;28;20036;-69
2023/03/11 07:07:42;;;;;;;8.15;3.45;;;-3.90;99.90;;;;;;5046342;28;20492;-69
2023/03/11 07:10:09;;;;;;;7.47;3.33;;;-3.80;99.90;;;;;;5055846;28;20123;-69
2023/03/11 07:12:34;;;;;;;11.32;3.42;;;-3.70;99.90;;;;;;5047526;28;20264;-69
2023/03/11 07:15:00;;;;;;;10.45;4.18;;;-3.60;99.90;;;;;;5047920;28;20096;-69
2023/03/11 07:17:26;;;;;;;7.55;3.72;;;-3.50;99.90;;;;;;5079895;28;20486;-69
2023/03/11 07:19:52;;;;;;;7.75;4.05;;;-3.30;99.90;;;;;;5087753;28;20051;-69
2023/03/11 07:22:17;;;;;;;9.27;4.38;;;-3.10;99.90;;;;;;5086342;28;20036;-70
2023/03/11 07:24:49;;;;;;;13.13;5.22;;;-3.00;99.90;;;;;;5066156;28;20404;-70
2023/03/11 07:27:15;;;;;;;17.92;5.05;;;-2.80;99.90;;;;;;5085602;28;20105;-69
2023/03/11 07:29:41;;;;;;;10.50;4.38;;;-2.80;99.90;;;;;;5078848;28;20052;-70
2023/03/11 07:32:07;;;;;;;9.70;4.55;;;-2.70;99.90;;;;;;5083252;28;20475;-70
2023/03/11 07:34:33;;;;;;;11.77;4.65;;;-2.60;99.90;;;;;;5065420;28;20076;-69
2023/03/11 07:36:59;;;;;;;9.80;4.50;;;-2.30;99.90;;;;;;5090376;28;20542;-70
2023/03/11 07:39:24;;;;;;;11.13;4.43;;;-1.70;99.90;;;;;;5086931;28;20040;-70
2023/03/11 07:41:50;;;;;;;17.83;5.40;;;-1.50;99.90;;;;;;5063333;28;20052;-70
2023/03/11 07:44:16;;;;;;;11.07;4.57;;;-1.40;99.90;;;;;;5080141;28;20480;-70
2023/03/11 07:46:42;;;;;;;9.13;4.28;;;-1.30;99.90;;;;;;5078840;28;20039;-70
2023/03/11 07:49:08;;;;;;;10.63;4.07;;;-1.30;99.90;;;;;;5070180;28;20032;-70
2023/03/11 07:51:36;;;;;;;10.35;4.30;;;-1.30;99.90;;;;;;5084701;28;20040;-70
2023/03/11 07:54:03;;;;;;;13.30;4.47;;;-1.30;99.90;;;;;;5067378;28;20483;-70
2023/03/11 07:56:31;;;;;;;8.75;4.22;;;-1.30;99.90;;;;;;5069915;28;20503;-70
2023/03/11 07:58:58;;;;;;;9.50;4.07;;;-1.30;99.90;;;;;;5049782;28;20075;-70
2023/03/11 08:01:26;;;;;;;11.60;3.88;;;-1.20;99.90;;;;;;5079727;28;20040;-70
2023/03/11 08:03:55;;;;;;;10.80;4.20;;;-1.20;99.90;;;;;;5081091;28;20050;-71
2023/03/11 08:06:24;;;;;;;13.52;5.95;;;-1.10;99.90;;;;;;5082672;28;20044;-71
2023/03/11 08:08:50;;;;;;;10.15;4.85;;;-1.10;99.90;;;;;;5084197;28;20085;-71
2023/03/11 08:11:17;;;;;;;14.90;6.97;;;-1.00;99.90;;;;;;5065692;28;20056;-72
2023/03/11 08:13:44;;;;;;;12.60;4.47;;;-0.90;99.90;;;;;;5065060;28;20044;-71
2023/03/11 08:16:12;;;;;;;9.18;4.70;;;-0.80;99.90;;;;;;5083396;28;20381;-72
2023/03/11 08:18:38;;;;;;;8.90;4.10;;;-0.70;99.90;;;;;;5064094;28;20044;-71
2023/03/11 08:21:09;;;;;;;7.53;4.68;;;-0.60;99.90;;;;;;5083684;28;20086;-72
2023/03/11 08:23:34;;;;;;;10.50;4.45;;;-0.50;99.90;;;;;;5068896;28;20047;-71
2023/03/11 08:26:04;;;;;;;8.07;4.53;;;-0.40;99.90;;;;;;5087726;28;20043;-71
2023/03/11 08:28:30;;;;;;;12.13;5.63;;;-0.30;99.90;;;;;;5064671;28;20093;-71
2023/03/11 08:30:56;;;;;;;18.75;7.40;;;-0.20;99.90;;;;;;5088002;28;20036;-72
2023/03/11 08:33:21;;;;;;;10.73;5.80;;;-0.10;99.90;;;;;;5064601;28;20163;-71
2023/03/11 08:35:47;;;;;;;13.25;6.75;;;0.00;99.90;;;;;;5082259;28;20075;-71
2023/03/11 08:38:13;;;;;;;8.55;5.22;;;0.10;99.90;;;;;;5065088;28;20146;-72
2023/03/11 08:40:38;;;;;;;9.82;5.60;;;0.30;99.90;;;;;;5052027;28;20040;-71
2023/03/11 08:43:04;;;;;;;11.68;6.18;;;0.60;99.90;;;;;;5082440;28;20050;-72
2023/03/11 08:45:30;;;;;;;13.73;6.50;;;0.80;99.90;;;;;;5064017;28;20150;-71
2023/03/11 08:47:55;;;;;;;16.27;8.65;;;1.00;99.90;;;;;;5085671;28;20111;-71
2023/03/11 08:50:21;;;;;;;17.75;9.23;;;1.10;99.90;;;;;;5055528;28;20028;-72
2023/03/11 08:52:47;;;;;;;16.05;8.13;;;1.40;99.90;;;;;;5065992;28;20039;-72
2023/03/11 08:55:15;;;;;;;16.25;8.25;;;1.40;99.90;;;;;;5066720;28;20043;-72
2023/03/11 08:57:41;;;;;;;14.00;7.38;;;1.60;99.90;;;;;;5065816;28;20182;-72
2023/03/11 09:00:08;;;;;;;47.70;9.57;;;2.10;99.90;;;;;;5069119;28;20134;-72
2023/03/11 09:02:33;;;;;;;30.23;8.50;;;2.50;99.90;;;;;;5048626;28;20499;-72
2023/03/11 09:04:59;;;;;;;11.52;5.75;;;2.90;99.90;;;;;;5082681;28;20036;-71
2023/03/11 09:07:25;;;;;;;12.00;5.40;;;3.40;99.90;;;;;;5064735;28;20039;-71
2023/03/11 09:09:50;;;;;;;13.65;7.95;;;3.70;99.90;;;;;;5086376;28;20270;-72
2023/03/11 09:12:16;;;;;;;10.18;4.47;;;4.00;99.90;;;;;;5068590;28;20047;-72
2023/03/11 09:14:42;;;;;;;8.00;3.72;;;4.30;99.90;;;;;;5053093;28;20043;-71
2023/03/11 09:17:09;;;;;;;9.73;3.28;;;4.60;99.90;;;;;;5084697;28;20902;-71
2023/03/11 09:19:35;;;;;;;7.88;3.38;;;4.80;99.90;;;;;;5068227;28;20416;-71
2023/03/11 09:22:01;;;;;;;4.72;2.95;;;4.90;99.90;;;;;;5066903;28;20730;-71
2023/03/11 09:24:27;;;;;;;10.25;3.20;;;5.00;99.90;;;;;;5066155;28;20522;-70
2023/03/11 09:26:53;;;;;;;9.25;4.15;;;5.10;99.90;;;;;;5083606;28;20086;-71
2023/03/11 09:29:19;;;;;;;6.57;2.92;;;5.20;99.90;;;;;;5066381;28;20345;-70
2023/03/11 09:31:45;;;;;;;9.52;3.33;;;5.20;99.90;;;;;;5078339;28;20141;-68
2023/03/11 09:34:11;;;;;;;53.22;5.25;;;5.20;99.90;;;;;;5063258;28;20137;-69
2023/03/11 09:36:40;;;;;;;7.25;2.70;;;5.20;99.90;;;;;;5081451;28;20044;-69
2023/03/11 09:39:06;;;;;;;6.90;2.80;;;5.20;99.90;;;;;;5062039;28;20044;-69
2023/03/11 09:41:52;;;;;;;4.78;2.50;;;5.20;99.90;;;;;;5081607;28;20488;-68
2023/03/11 09:44:27;;;;;;;11.00;3.60;;;5.20;99.90;;;;;;5062485;28;20484;-69
2023/03/11 09:46:59;;;;;;;5.70;3.00;;;5.30;99.90;;;;;;5065060;28;20048;-69
2023/03/11 09:49:39;;;;;;;7.05;3.20;;;5.30;99.90;;;;;;5077111;28;20048;-69
2023/03/11 09:52:13;;;;;;;8.68;3.13;;;5.30;99.90;;;;;;5084047;28;20594;-68
2023/03/11 09:55:01;;;;;;;7.18;2.70;;;5.40;99.90;;;;;;5067396;28;20051;-68
2023/03/11 09:57:35;;;;;;;7.07;3.50;;;5.50;99.90;;;;;;5062046;28;20043;-68
2023/03/11 10:00:04;;;;;;;9.85;3.65;;;5.40;99.90;;;;;;5082166;28;20040;-68
2023/03/11 10:02:31;;;;;;;10.25;3.60;;;5.50;99.90;;;;;;5082383;28;20048;-69
2023/03/11 10:05:12;;;;;;;11.55;3.78;;;5.60;99.90;;;;;;5064542;28;20094;-69
2023/03/11 10:07:40;;;;;;;8.55;3.67;;;5.70;99.90;;;;;;5086041;28;20032;-69
2023/03/11 10:10:11;;;;;;;9.52;3.38;;;5.70;99.90;;;;;;5084423;28;20043;-69
2023/03/11 10:12:58;;;;;;;8.00;4.22;;;5.80;99.90;;;;;;5085560;28;20126;-69
2023/03/11 10:15:47;;;;;;;8.88;3.60;;;6.00;99.90;;;;;;5083263;28;20043;-70
2023/03/11 10:18:41;;;;;;;9.85;4.95;;;6.30;99.90;;;;;;5082561;28;20512;-69
2023/03/11 10:21:19;;;;;;;7.32;3.42;;;6.50;99.90;;;;;;5064902;28;20043;-70
2023/03/11 10:24:11;;;;;;;7.93;3.17;;;6.60;99.90;;;;;;5048882;28;20419;-69
2023/03/11 10:26:56;;;;;;;7.47;3.15;;;6.70;99.90;;;;;;5079080;28;20044;-70
2023/03/11 10:29:34;;;;;;;11.27;3.53;;;6.80;99.90;;;;;;5067473;28;20712;-70
2023/03/11 10:32:16;;;;;;;12.95;3.55;;;6.90;99.90;;;;;;5083837;28;20094;-70
2023/03/11 10:34:53;;;;;;;9.77;3.92;;;6.80;99.90;;;;;;5067726;28;20048;-71
2023/03/11 10:37:25;;;;;;;12.55;5.15;;;6.90;99.90;;;;;;5078689;28;20036;-71
2023/03/11 10:39:51;;;;;;;11.68;3.70;;;6.90;99.90;;;;;;5064117;28;20067;-71
2023/03/11 10:42:24;;;;;;;10.95;3.92;;;6.90;99.90;;;;;;5079897;28;20078;-72
2023/03/11 10:44:50;;;;;;;10.55;3.67;;;6.90;99.90;;;;;;5064093;28;20036;-72
2023/03/11 10:47:24;;;;;;;7.10;2.90;;;6.90;99.90;;;;;;5080747;28;20542;-72
2023/03/11 10:49:51;;;;;;;5.50;3.00;;;7.00;99.90;;;;;;5063109;28;20040;-72
2023/03/11 10:52:17;;;;;;;6.38;2.70;;;7.10;99.90;;;;;;5067843;28;20051;-73
2023/03/11 10:54:46;;;;;;;7.30;2.63;;;7.10;99.90;;;;;;5071575;28;20452;-72
2023/03/11 10:57:32;;;;;;;6.38;2.95;;;7.20;99.90;;;;;;5063925;28;20447;-73
2023/03/11 11:00:00;;;;;;;7.40;2.75;;;7.10;99.90;;;;;;5070410;28;20531;-72
2023/03/11 11:02:31;;;;;;;7.32;2.70;;;7.00;99.90;;;;;;5070367;28;20055;-72
2023/03/11 11:05:15;;;;;;;9.13;2.70;;;6.70;99.90;;;;;;5067104;28;20040;-72
2023/03/11 11:07:41;;;;;;;7.90;2.80;;;6.70;99.90;;;;;;5069778;28;20051;-73
2023/03/11 11:10:22;;;;;;;5.28;2.67;;;6.90;99.90;;;;;;5083351;28;20036;-71
2023/03/11 11:13:02;;;;;;;5.60;2.35;;;7.10;99.90;;;;;;5064259;28;20039;-72
2023/03/11 11:15:35;;;;;;;7.00;2.80;;;7.10;99.90;;;;;;5080202;28;20048;-71
2023/03/11 11:18:03;;;;;;;5.55;2.58;;;7.20;99.90;;;;;;5062799;28;20060;-72
2023/03/11 11:20:30;;;;;;;8.55;2.63;;;7.30;99.90;;;;;;5079762;28;20052;-71
2023/03/11 11:22:58;;;;;;;6.47;2.50;;;7.30;99.90;;;;;;5066252;28;20082;-71
2023/03/11 11:25:34;;;;;;;6.22;2.10;;;7.30;99.90;;;;;;5081506;28;20048;-71
2023/03/11 11:28:22;;;;;;;7.30;2.53;;;7.40;99.90;;;;;;5083376;28;20051;-69
2023/03/11 11:30:54;;;;;;;5.97;2.50;;;7.40;99.90;;;;;;5066444;28;20040;-69
2023/03/11 11:33:32;;;;;;;4.90;2.70;;;7.50;99.90;;;;;;5047036;28;20041;-69
2023/03/11 11:36:01;;;;;;;4.55;2.08;;;7.50;99.90;;;;;;5085085;28;20479;-71
2023/03/11 11:38:30;;;;;;;6.88;2.38;;;7.50;99.90;;;;;;5064803;28;20886;-70
2023/03/11 11:40:58;;;;;;;7.13;2.40;;;7.50;99.90;;;;;;5079837;28;20430;-70
2023/03/11 11:43:47;;;;;;;5.18;2.30;;;7.50;99.90;;;;;;5066411;28;20044;-70
2023/03/11 11:46:40;;;;;;;7.53;2.60;;;7.40;99.90;;;;;;5087907;28;20091;-69
2023/03/11 11:49:26;;;;;;;6.13;2.40;;;7.40;99.90;;;;;;5077576;28;20048;-70
2023/03/11 11:52:26;;;;;;;7.05;2.80;;;7.60;99.90;;;;;;5087751;28;20040;-70
2023/03/11 11:54:56;;;;;;;5.10;2.45;;;7.50;99.90;;;;;;5074226;28;20507;-70
2023/03/11 11:57:23;;;;;;;6.25;2.42;;;7.50;99.90;;;;;;5064017;28;20480;-70
2023/03/11 11:59:49;;;;;;;8.75;2.75;;;7.50;99.90;;;;;;5082627;28;20090;-69
2023/03/11 12:02:29;;;;;;;5.15;2.60;;;7.50;99.90;;;;;;5070636;28;20126;-69
2023/03/11 12:05:32;;;;;;;7.32;2.50;;;7.40;99.90;;;;;;5064601;28;20035;-70
2023/03/11 12:08:18;;;;;;;4.70;2.50;;;7.30;99.90;;;;;;5059212;28;20086;-70
2023/03/11 12:10:52;;;;;;;4.28;1.80;;;7.30;99.90;;;;;;5066277;28;20598;-70
2023/03/11 12:13:27;;;;;;;4.65;2.40;;;7.30;99.90;;;;;;5051380;28;20047;-70
2023/03/11 12:16:12;;;;;;;8.93;2.90;;;7.30;99.90;;;;;;5086640;28;20408;-69
2023/03/11 12:18:41;;;;;;;8.52;2.70;;;7.30;99.90;;;;;;5066018;28;20048;-70
2023/03/11 12:21:42;;;;;;;7.07;2.67;;;7.30;99.90;;;;;;5061762;28;20082;-69
2023/03/11 12:24:11;;;;;;;3.50;1.80;;;7.40;99.90;;;;;;5056481;28;20062;-70
2023/03/11 12:26:40;;;;;;;7.90;1.90;;;7.50;99.90;;;;;;5069272;28;20032;-70
2023/03/11 12:29:24;;;;;;;4.30;1.80;;;7.30;99.90;;;;;;5084767;28;20126;-70
2023/03/11 12:31:50;;;;;;;3.00;1.80;;;7.10;99.90;;;;;;5086163;28;20385;-71
2023/03/11 12:34:19;;;;;;;5.70;1.65;;;6.90;99.90;;;;;;5067584;28;20046;-71
2023/03/11 12:36:47;;;;;;;4.65;2.00;;;6.90;99.90;;;;;;5086051;28;20036;-70
2023/03/11 12:39:28;;;;;;;3.60;1.58;;;6.80;99.90;;;;;;5081717;28;20036;-70
2023/03/11 12:42:12;;;;;;;3.83;1.75;;;6.80;99.90;;;;;;5066926;28;20035;-70
2023/03/11 12:44:39;;;;;;;2.88;1.70;;;6.60;99.90;;;;;;5086403;28;20102;-70
2023/03/11 12:47:10;;;;;;;3.80;1.60;;;6.50;99.90;;;;;;5068760;28;20044;-70
2023/03/11 12:49:39;;;;;;;4.75;1.98;;;6.50;99.90;;;;;;5067570;28;20101;-70
2023/03/11 12:52:08;;;;;;;6.75;1.90;;;6.40;99.90;;;;;;5079486;28;20075;-70
2023/03/11 12:54:45;;;;;;;4.28;1.88;;;6.50;99.90;;;;;;5050077;28;20036;-70
2023/03/11 12:57:17;;;;;;;6.50;1.85;;;6.50;99.90;;;;;;5064248;28;20496;-70
2023/03/11 12:59:58;;;;;;;6.57;1.92;;;6.30;99.90;;;;;;5064893;28;20044;-70